sensor_id;sensor_type;location;lat;lon;timestamp;P1;durP1;ratioP1;P2;durP2;ratioP2
47089;SDS011;32840;52.516;13.294;2024-01-06T00:00:59;72.45;;;35.08;;
47089;SDS011;32840;52.516;13.294;2024-01-06T00:03:44;62.92;;;33.58;;
47089;SDS011;32840;52.516;13.294;2024-01-06T00:06:31;66.05;;;31.92;;
47089;SDS011;32840;52.516;13.294;2024-01-06T00:09:17;65.97;;;32.17;;
47089;SDS011;32840;52.516;13.294;2024-01-06T00:12:02;65.90;;;32.45;;
47089;SDS011;32840;52.516;13.294;2024-01-06T00:14:47;64.88;;;31.65;;
47089;SDS011;32840;52.516;13.294;2024-01-06T00:17:35;64.20;;;32.03;;
47089;SDS011;32840;52.516;13.294;2024-01-06T00:20:20;66.15;;;33.00;;
47089;SDS011;32840;52.516;13.294;2024-01-06T00:23:06;62.67;;;33.03;;
47089;SDS011;32840;52.516;13.294;2024-01-06T00:25:53;62.92;;;31.30;;
47089;SDS011;32840;52.516;13.294;2024-01-06T00:28:38;61.13;;;30.45;;
47089;SDS011;32840;52.516;13.294;2024-01-06T00:31:23;65.45;;;32.85;;
47089;SDS011;32840;52.516;13.294;2024-01-06T00:34:09;61.92;;;31.45;;
47089;SDS011;32840;52.516;13.294;2024-01-06T00:36:54;64.53;;;31.98;;
47089;SDS011;32840;52.516;13.294;2024-01-06T00:39:39;60.47;;;30.77;;
47089;SDS011;32840;52.516;13.294;2024-01-06T00:42:24;58.05;;;31.08;;
47089;SDS011;32840;52.516;13.294;2024-01-06T00:48:23;61.45;;;30.00;;
47089;SDS011;32840;52.516;13.294;2024-01-06T00:51:08;58.70;;;30.50;;
47089;SDS011;32840;52.516;13.294;2024-01-06T00:53:53;64.13;;;31.00;;
47089;SDS011;32840;52.516;13.294;2024-01-06T00:56:38;58.85;;;29.83;;
47089;SDS011;32840;52.516;13.294;2024-01-06T00:59:23;56.92;;;30.30;;
47089;SDS011;32840;52.516;13.294;2024-01-06T01:02:08;60.65;;;30.10;;
47089;SDS011;32840;52.516;13.294;2024-01-06T01:04:53;58.20;;;29.23;;
47089;SDS011;32840;52.516;13.294;2024-01-06T01:07:37;61.25;;;30.33;;
47089;SDS011;32840;52.516;13.294;2024-01-06T01:10:24;59.65;;;29.42;;
47089;SDS011;32840;52.516;13.294;2024-01-06T01:13:10;54.35;;;30.10;;
47089;SDS011;32840;52.516;13.294;2024-01-06T01:15:55;56.25;;;28.27;;
47089;SDS011;32840;52.516;13.294;2024-01-06T01:18:40;56.15;;;28.40;;
47089;SDS011;32840;52.516;13.294;2024-01-06T01:21:25;57.60;;;29.65;;
47089;SDS011;32840;52.516;13.294;2024-01-06T01:24:10;55.00;;;28.40;;
47089;SDS011;32840;52.516;13.294;2024-01-06T01:26:55;55.97;;;28.58;;
47089;SDS011;32840;52.516;13.294;2024-01-06T01:29:40;58.65;;;28.73;;
47089;SDS011;32840;52.516;13.294;2024-01-06T01:32:25;57.92;;;28.77;;
47089;SDS011;32840;52.516;13.294;2024-01-06T01:35:10;57.85;;;28.60;;
47089;SDS011;32840;52.516;13.294;2024-01-06T01:37:55;56.55;;;27.45;;
47089;SDS011;32840;52.516;13.294;2024-01-06T01:40:44;57.05;;;28.55;;
47089;SDS011;32840;52.516;13.294;2024-01-06T01:43:29;57.58;;;27.92;;
47089;SDS011;32840;52.516;13.294;2024-01-06T01:46:14;56.22;;;28.48;;
47089;SDS011;32840;52.516;13.294;2024-01-06T01:49:00;49.55;;;26.27;;
47089;SDS011;32840;52.516;13.294;2024-01-06T01:51:45;56.47;;;28.35;;
47089;SDS011;32840;52.516;13.294;2024-01-06T01:54:30;57.40;;;29.50;;
47089;SDS011;32840;52.516;13.294;2024-01-06T01:57:15;52.67;;;27.70;;
47089;SDS011;32840;52.516;13.294;2024-01-06T02:00:01;49.20;;;26.73;;
47089;SDS011;32840;52.516;13.294;2024-01-06T02:02:47;54.22;;;26.33;;
47089;SDS011;32840;52.516;13.294;2024-01-06T02:05:34;53.53;;;26.38;;
47089;SDS011;32840;52.516;13.294;2024-01-06T02:08:20;54.75;;;26.98;;
47089;SDS011;32840;52.516;13.294;2024-01-06T02:11:08;52.83;;;26.23;;
47089;SDS011;32840;52.516;13.294;2024-01-06T02:13:52;51.60;;;26.88;;
47089;SDS011;32840;52.516;13.294;2024-01-06T02:16:38;54.33;;;28.52;;
47089;SDS011;32840;52.516;13.294;2024-01-06T02:19:23;49.92;;;26.58;;
47089;SDS011;32840;52.516;13.294;2024-01-06T02:22:09;51.90;;;26.42;;
47089;SDS011;32840;52.516;13.294;2024-01-06T02:31:20;54.58;;;26.02;;
47089;SDS011;32840;52.516;13.294;2024-01-06T02:34:05;53.92;;;26.33;;
47089;SDS011;32840;52.516;13.294;2024-01-06T02:36:51;50.17;;;25.17;;
47089;SDS011;32840;52.516;13.294;2024-01-06T02:39:36;51.70;;;25.02;;
47089;SDS011;32840;52.516;13.294;2024-01-06T02:42:21;49.33;;;25.58;;
47089;SDS011;32840;52.516;13.294;2024-01-06T02:45:07;50.22;;;25.98;;
47089;SDS011;32840;52.516;13.294;2024-01-06T02:47:53;53.95;;;26.48;;
47089;SDS011;32840;52.516;13.294;2024-01-06T02:50:38;49.22;;;24.10;;
47089;SDS011;32840;52.516;13.294;2024-01-06T02:53:23;56.97;;;26.13;;
47089;SDS011;32840;52.516;13.294;2024-01-06T02:56:11;51.15;;;25.00;;
47089;SDS011;32840;52.516;13.294;2024-01-06T02:58:56;51.67;;;24.98;;
47089;SDS011;32840;52.516;13.294;2024-01-06T03:01:41;46.40;;;24.67;;
47089;SDS011;32840;52.516;13.294;2024-01-06T03:04:26;52.47;;;26.13;;
47089;SDS011;32840;52.516;13.294;2024-01-06T03:07:11;50.22;;;24.92;;
47089;SDS011;32840;52.516;13.294;2024-01-06T03:09:55;55.10;;;26.90;;
47089;SDS011;32840;52.516;13.294;2024-01-06T03:12:40;53.72;;;26.40;;
47089;SDS011;32840;52.516;13.294;2024-01-06T03:15:26;48.67;;;24.88;;
47089;SDS011;32840;52.516;13.294;2024-01-06T03:18:11;53.75;;;24.92;;
47089;SDS011;32840;52.516;13.294;2024-01-06T03:20:57;50.95;;;25.63;;
47089;SDS011;32840;52.516;13.294;2024-01-06T03:23:42;50.15;;;25.73;;
47089;SDS011;32840;52.516;13.294;2024-01-06T03:26:28;49.15;;;26.35;;
47089;SDS011;32840;52.516;13.294;2024-01-06T03:29:13;50.97;;;24.80;;
47089;SDS011;32840;52.516;13.294;2024-01-06T03:31:59;53.60;;;25.67;;
47089;SDS011;32840;52.516;13.294;2024-01-06T03:34:55;50.63;;;23.98;;
47089;SDS011;32840;52.516;13.294;2024-01-06T03:37:39;47.40;;;25.08;;
47089;SDS011;32840;52.516;13.294;2024-01-06T03:40:25;52.03;;;27.08;;
47089;SDS011;32840;52.516;13.294;2024-01-06T03:43:10;51.50;;;26.15;;
47089;SDS011;32840;52.516;13.294;2024-01-06T03:45:54;48.75;;;24.45;;
47089;SDS011;32840;52.516;13.294;2024-01-06T03:48:42;53.47;;;26.13;;
47089;SDS011;32840;52.516;13.294;2024-01-06T03:51:30;50.92;;;26.17;;
47089;SDS011;32840;52.516;13.294;2024-01-06T03:54:16;54.42;;;25.17;;
47089;SDS011;32840;52.516;13.294;2024-01-06T03:57:01;57.20;;;26.15;;
47089;SDS011;32840;52.516;13.294;2024-01-06T03:59:46;50.85;;;25.67;;
47089;SDS011;32840;52.516;13.294;2024-01-06T04:02:31;55.65;;;26.20;;
47089;SDS011;32840;52.516;13.294;2024-01-06T04:05:16;50.47;;;26.35;;
47089;SDS011;32840;52.516;13.294;2024-01-06T04:08:02;53.80;;;26.17;;
47089;SDS011;32840;52.516;13.294;2024-01-06T04:10:47;51.00;;;25.23;;
47089;SDS011;32840;52.516;13.294;2024-01-06T04:13:33;51.45;;;26.25;;
47089;SDS011;32840;52.516;13.294;2024-01-06T04:16:22;64.50;;;28.02;;
47089;SDS011;32840;52.516;13.294;2024-01-06T04:19:06;54.75;;;27.20;;
47089;SDS011;32840;52.516;13.294;2024-01-06T04:21:54;52.40;;;26.13;;
47089;SDS011;32840;52.516;13.294;2024-01-06T04:24:39;55.72;;;26.63;;
47089;SDS011;32840;52.516;13.294;2024-01-06T04:27:26;53.42;;;26.08;;
47089;SDS011;32840;52.516;13.294;2024-01-06T04:30:11;59.20;;;27.50;;
47089;SDS011;32840;52.516;13.294;2024-01-06T04:32:57;60.20;;;27.05;;
47089;SDS011;32840;52.516;13.294;2024-01-06T04:35:42;55.03;;;27.02;;
47089;SDS011;32840;52.516;13.294;2024-01-06T04:38:28;58.67;;;28.50;;
47089;SDS011;32840;52.516;13.294;2024-01-06T04:41:15;56.38;;;26.08;;
47089;SDS011;32840;52.516;13.294;2024-01-06T04:47:43;57.58;;;27.67;;
47089;SDS011;32840;52.516;13.294;2024-01-06T04:50:28;57.95;;;27.08;;
47089;SDS011;32840;52.516;13.294;2024-01-06T04:53:13;54.47;;;28.50;;
47089;SDS011;32840;52.516;13.294;2024-01-06T04:55:58;57.15;;;27.50;;
47089;SDS011;32840;52.516;13.294;2024-01-06T04:58:43;57.38;;;26.70;;
47089;SDS011;32840;52.516;13.294;2024-01-06T05:01:30;64.13;;;28.88;;
47089;SDS011;32840;52.516;13.294;2024-01-06T05:04:15;61.30;;;29.05;;
47089;SDS011;32840;52.516;13.294;2024-01-06T05:07:01;64.78;;;30.27;;
47089;SDS011;32840;52.516;13.294;2024-01-06T05:09:48;56.75;;;29.15;;
47089;SDS011;32840;52.516;13.294;2024-01-06T05:12:32;57.55;;;28.40;;
47089;SDS011;32840;52.516;13.294;2024-01-06T05:15:17;61.38;;;29.08;;
47089;SDS011;32840;52.516;13.294;2024-01-06T05:18:03;61.58;;;26.33;;
47089;SDS011;32840;52.516;13.294;2024-01-06T05:20:50;57.75;;;27.23;;
47089;SDS011;32840;52.516;13.294;2024-01-06T05:23:35;55.78;;;27.17;;
47089;SDS011;32840;52.516;13.294;2024-01-06T05:26:19;61.45;;;27.33;;
47089;SDS011;32840;52.516;13.294;2024-01-06T05:29:04;63.25;;;28.77;;
47089;SDS011;32840;52.516;13.294;2024-01-06T05:31:49;60.67;;;28.83;;
47089;SDS011;32840;52.516;13.294;2024-01-06T05:34:34;68.32;;;29.63;;
47089;SDS011;32840;52.516;13.294;2024-01-06T05:37:19;60.20;;;29.17;;
47089;SDS011;32840;52.516;13.294;2024-01-06T05:40:04;62.45;;;28.48;;
47089;SDS011;32840;52.516;13.294;2024-01-06T05:42:51;66.55;;;29.75;;
47089;SDS011;32840;52.516;13.294;2024-01-06T05:45:39;66.90;;;29.08;;
47089;SDS011;32840;52.516;13.294;2024-01-06T05:48:25;65.07;;;29.23;;
47089;SDS011;32840;52.516;13.294;2024-01-06T05:51:12;59.53;;;27.92;;
47089;SDS011;32840;52.516;13.294;2024-01-06T05:53:57;58.15;;;30.35;;
47089;SDS011;32840;52.516;13.294;2024-01-06T05:56:44;67.80;;;31.38;;
47089;SDS011;32840;52.516;13.294;2024-01-06T05:59:32;72.38;;;33.40;;
47089;SDS011;32840;52.516;13.294;2024-01-06T06:02:17;69.18;;;30.80;;
47089;SDS011;32840;52.516;13.294;2024-01-06T06:08:29;74.90;;;32.10;;
47089;SDS011;32840;52.516;13.294;2024-01-06T06:11:14;65.10;;;30.40;;
47089;SDS011;32840;52.516;13.294;2024-01-06T06:13:58;66.75;;;30.50;;
47089;SDS011;32840;52.516;13.294;2024-01-06T06:16:43;65.13;;;30.80;;
47089;SDS011;32840;52.516;13.294;2024-01-06T06:19:28;66.38;;;30.65;;
47089;SDS011;32840;52.516;13.294;2024-01-06T06:22:13;63.42;;;29.50;;
47089;SDS011;32840;52.516;13.294;2024-01-06T06:24:59;65.03;;;30.63;;
47089;SDS011;32840;52.516;13.294;2024-01-06T06:27:44;62.53;;;29.00;;
47089;SDS011;32840;52.516;13.294;2024-01-06T06:30:29;66.40;;;31.48;;
47089;SDS011;32840;52.516;13.294;2024-01-06T06:33:13;63.88;;;29.70;;
47089;SDS011;32840;52.516;13.294;2024-01-06T06:35:58;62.75;;;29.50;;
47089;SDS011;32840;52.516;13.294;2024-01-06T06:38:44;64.55;;;29.13;;
47089;SDS011;32840;52.516;13.294;2024-01-06T06:41:29;70.35;;;31.25;;
47089;SDS011;32840;52.516;13.294;2024-01-06T06:44:14;66.22;;;30.60;;
47089;SDS011;32840;52.516;13.294;2024-01-06T06:46:59;66.30;;;28.70;;
47089;SDS011;32840;52.516;13.294;2024-01-06T06:49:44;59.95;;;28.27;;
47089;SDS011;32840;52.516;13.294;2024-01-06T06:52:30;70.60;;;31.30;;
47089;SDS011;32840;52.516;13.294;2024-01-06T06:55:15;60.35;;;27.30;;
47089;SDS011;32840;52.516;13.294;2024-01-06T06:58:01;64.45;;;29.42;;
47089;SDS011;32840;52.516;13.294;2024-01-06T07:00:46;64.32;;;29.05;;
47089;SDS011;32840;52.516;13.294;2024-01-06T07:03:31;65.85;;;29.38;;
47089;SDS011;32840;52.516;13.294;2024-01-06T07:06:16;67.82;;;29.15;;
47089;SDS011;32840;52.516;13.294;2024-01-06T07:09:02;61.15;;;28.48;;
47089;SDS011;32840;52.516;13.294;2024-01-06T07:11:47;61.83;;;27.27;;
47089;SDS011;32840;52.516;13.294;2024-01-06T07:14:32;57.45;;;28.35;;
47089;SDS011;32840;52.516;13.294;2024-01-06T07:17:17;64.80;;;29.38;;
47089;SDS011;32840;52.516;13.294;2024-01-06T07:20:01;65.20;;;28.90;;
47089;SDS011;32840;52.516;13.294;2024-01-06T07:22:49;65.80;;;29.23;;
47089;SDS011;32840;52.516;13.294;2024-01-06T07:25:34;66.85;;;28.75;;
47089;SDS011;32840;52.516;13.294;2024-01-06T07:28:19;61.67;;;26.52;;
47089;SDS011;32840;52.516;13.294;2024-01-06T07:31:05;68.97;;;28.38;;
47089;SDS011;32840;52.516;13.294;2024-01-06T07:33:50;62.88;;;26.45;;
47089;SDS011;32840;52.516;13.294;2024-01-06T07:36:37;65.75;;;27.73;;
47089;SDS011;32840;52.516;13.294;2024-01-06T07:39:22;55.17;;;25.77;;
47089;SDS011;32840;52.516;13.294;2024-01-06T07:42:08;64.63;;;27.35;;
47089;SDS011;32840;52.516;13.294;2024-01-06T07:44:53;63.63;;;28.38;;
47089;SDS011;32840;52.516;13.294;2024-01-06T07:47:38;67.82;;;28.60;;
47089;SDS011;32840;52.516;13.294;2024-01-06T07:50:23;69.80;;;29.25;;
47089;SDS011;32840;52.516;13.294;2024-01-06T07:53:08;65.07;;;27.85;;
47089;SDS011;32840;52.516;13.294;2024-01-06T07:55:55;67.82;;;28.10;;
47089;SDS011;32840;52.516;13.294;2024-01-06T07:58:41;69.45;;;30.67;;
47089;SDS011;32840;52.516;13.294;2024-01-06T08:01:26;71.88;;;29.33;;
47089;SDS011;32840;52.516;13.294;2024-01-06T08:04:29;67.75;;;28.88;;
47089;SDS011;32840;52.516;13.294;2024-01-06T08:07:14;67.93;;;28.00;;
47089;SDS011;32840;52.516;13.294;2024-01-06T08:10:00;65.43;;;28.95;;
47089;SDS011;32840;52.516;13.294;2024-01-06T08:12:45;70.97;;;29.95;;
47089;SDS011;32840;52.516;13.294;2024-01-06T08:15:29;64.10;;;28.83;;
47089;SDS011;32840;52.516;13.294;2024-01-06T08:18:16;62.83;;;28.27;;
47089;SDS011;32840;52.516;13.294;2024-01-06T08:21:02;71.15;;;30.95;;
47089;SDS011;32840;52.516;13.294;2024-01-06T08:23:48;63.05;;;29.85;;
47089;SDS011;32840;52.516;13.294;2024-01-06T08:26:33;64.35;;;28.80;;
47089;SDS011;32840;52.516;13.294;2024-01-06T08:29:18;62.38;;;28.52;;
47089;SDS011;32840;52.516;13.294;2024-01-06T08:32:04;64.28;;;28.33;;
47089;SDS011;32840;52.516;13.294;2024-01-06T08:34:48;61.95;;;28.05;;
47089;SDS011;32840;52.516;13.294;2024-01-06T08:37:35;67.63;;;29.00;;
47089;SDS011;32840;52.516;13.294;2024-01-06T08:40:20;69.03;;;28.35;;
47089;SDS011;32840;52.516;13.294;2024-01-06T08:43:05;67.15;;;28.52;;
47089;SDS011;32840;52.516;13.294;2024-01-06T08:45:52;66.68;;;28.92;;
47089;SDS011;32840;52.516;13.294;2024-01-06T08:48:37;58.78;;;27.77;;
47089;SDS011;32840;52.516;13.294;2024-01-06T08:51:22;64.25;;;29.05;;
47089;SDS011;32840;52.516;13.294;2024-01-06T08:57:41;62.50;;;27.92;;
47089;SDS011;32840;52.516;13.294;2024-01-06T09:00:26;65.40;;;29.85;;
47089;SDS011;32840;52.516;13.294;2024-01-06T09:03:11;63.88;;;29.52;;
47089;SDS011;32840;52.516;13.294;2024-01-06T09:05:56;65.97;;;29.90;;
47089;SDS011;32840;52.516;13.294;2024-01-06T09:08:44;66.15;;;28.92;;
47089;SDS011;32840;52.516;13.294;2024-01-06T09:11:29;62.65;;;28.88;;
47089;SDS011;32840;52.516;13.294;2024-01-06T09:14:14;67.03;;;28.45;;
47089;SDS011;32840;52.516;13.294;2024-01-06T09:17:01;60.10;;;28.65;;
47089;SDS011;32840;52.516;13.294;2024-01-06T09:19:46;67.45;;;28.83;;
47089;SDS011;32840;52.516;13.294;2024-01-06T09:22:31;61.42;;;28.13;;
47089;SDS011;32840;52.516;13.294;2024-01-06T09:25:17;61.25;;;27.98;;
47089;SDS011;32840;52.516;13.294;2024-01-06T09:28:02;62.97;;;29.40;;
47089;SDS011;32840;52.516;13.294;2024-01-06T09:30:47;61.95;;;29.90;;
47089;SDS011;32840;52.516;13.294;2024-01-06T09:33:32;61.78;;;27.88;;
47089;SDS011;32840;52.516;13.294;2024-01-06T09:36:18;60.30;;;27.55;;
47089;SDS011;32840;52.516;13.294;2024-01-06T09:39:03;60.72;;;29.27;;
47089;SDS011;32840;52.516;13.294;2024-01-06T09:41:48;63.17;;;30.00;;
47089;SDS011;32840;52.516;13.294;2024-01-06T09:44:33;62.95;;;27.42;;
47089;SDS011;32840;52.516;13.294;2024-01-06T09:47:18;56.53;;;27.25;;
47089;SDS011;32840;52.516;13.294;2024-01-06T09:50:06;61.92;;;27.58;;
47089;SDS011;32840;52.516;13.294;2024-01-06T09:52:55;57.83;;;27.13;;
47089;SDS011;32840;52.516;13.294;2024-01-06T09:55:48;59.97;;;27.20;;
47089;SDS011;32840;52.516;13.294;2024-01-06T09:58:36;60.83;;;27.50;;
47089;SDS011;32840;52.516;13.294;2024-01-06T10:01:22;70.50;;;29.25;;
47089;SDS011;32840;52.516;13.294;2024-01-06T10:07:30;59.10;;;27.25;;
47089;SDS011;32840;52.516;13.294;2024-01-06T10:10:15;59.67;;;27.05;;
47089;SDS011;32840;52.516;13.294;2024-01-06T10:13:00;51.38;;;24.65;;
47089;SDS011;32840;52.516;13.294;2024-01-06T10:15:45;59.42;;;28.73;;
47089;SDS011;32840;52.516;13.294;2024-01-06T10:18:30;61.83;;;28.38;;
47089;SDS011;32840;52.516;13.294;2024-01-06T10:21:15;65.07;;;30.15;;
47089;SDS011;32840;52.516;13.294;2024-01-06T10:24:01;60.63;;;28.33;;
47089;SDS011;32840;52.516;13.294;2024-01-06T10:26:46;62.55;;;29.92;;
47089;SDS011;32840;52.516;13.294;2024-01-06T10:29:31;63.42;;;29.50;;
47089;SDS011;32840;52.516;13.294;2024-01-06T10:32:17;60.13;;;28.70;;
47089;SDS011;32840;52.516;13.294;2024-01-06T10:35:03;50.65;;;26.55;;
47089;SDS011;32840;52.516;13.294;2024-01-06T10:37:51;65.38;;;27.15;;
47089;SDS011;32840;52.516;13.294;2024-01-06T10:40:37;55.13;;;26.58;;
47089;SDS011;32840;52.516;13.294;2024-01-06T10:43:23;53.47;;;26.63;;
47089;SDS011;32840;52.516;13.294;2024-01-06T10:46:10;59.33;;;27.13;;
47089;SDS011;32840;52.516;13.294;2024-01-06T10:48:56;58.08;;;27.60;;
47089;SDS011;32840;52.516;13.294;2024-01-06T10:51:42;55.53;;;26.80;;
47089;SDS011;32840;52.516;13.294;2024-01-06T10:54:30;73.97;;;33.70;;
47089;SDS011;32840;52.516;13.294;2024-01-06T10:57:17;55.95;;;26.60;;
47089;SDS011;32840;52.516;13.294;2024-01-06T11:00:04;52.42;;;26.30;;
47089;SDS011;32840;52.516;13.294;2024-01-06T11:02:49;53.83;;;28.75;;
47089;SDS011;32840;52.516;13.294;2024-01-06T11:05:36;59.45;;;27.92;;
47089;SDS011;32840;52.516;13.294;2024-01-06T11:08:22;50.15;;;24.92;;
47089;SDS011;32840;52.516;13.294;2024-01-06T11:11:08;54.67;;;25.63;;
47089;SDS011;32840;52.516;13.294;2024-01-06T11:13:53;53.65;;;24.98;;
47089;SDS011;32840;52.516;13.294;2024-01-06T11:17:02;55.35;;;26.52;;
47089;SDS011;32840;52.516;13.294;2024-01-06T11:19:47;53.10;;;25.90;;
47089;SDS011;32840;52.516;13.294;2024-01-06T11:22:36;54.40;;;26.05;;
47089;SDS011;32840;52.516;13.294;2024-01-06T11:25:26;56.80;;;28.20;;
47089;SDS011;32840;52.516;13.294;2024-01-06T11:28:12;57.40;;;26.45;;
47089;SDS011;32840;52.516;13.294;2024-01-06T11:31:07;52.78;;;26.70;;
47089;SDS011;32840;52.516;13.294;2024-01-06T11:33:53;51.10;;;26.98;;
47089;SDS011;32840;52.516;13.294;2024-01-06T11:36:39;56.53;;;27.52;;
47089;SDS011;32840;52.516;13.294;2024-01-06T11:39:34;51.03;;;25.77;;
47089;SDS011;32840;52.516;13.294;2024-01-06T11:42:31;55.17;;;26.60;;
47089;SDS011;32840;52.516;13.294;2024-01-06T11:45:16;50.42;;;25.42;;
47089;SDS011;32840;52.516;13.294;2024-01-06T11:48:02;53.92;;;26.92;;
47089;SDS011;32840;52.516;13.294;2024-01-06T11:50:54;52.00;;;26.80;;
47089;SDS011;32840;52.516;13.294;2024-01-06T11:53:39;52.90;;;26.55;;
47089;SDS011;32840;52.516;13.294;2024-01-06T11:56:26;55.17;;;27.90;;
47089;SDS011;32840;52.516;13.294;2024-01-06T11:59:11;51.67;;;27.92;;
47089;SDS011;32840;52.516;13.294;2024-01-06T12:01:56;57.30;;;26.60;;
47089;SDS011;32840;52.516;13.294;2024-01-06T12:04:41;49.38;;;26.65;;
47089;SDS011;32840;52.516;13.294;2024-01-06T12:07:26;48.03;;;24.92;;
47089;SDS011;32840;52.516;13.294;2024-01-06T12:10:11;55.85;;;26.63;;
47089;SDS011;32840;52.516;13.294;2024-01-06T12:13:02;58.15;;;28.33;;
47089;SDS011;32840;52.516;13.294;2024-01-06T12:15:48;49.42;;;26.52;;
47089;SDS011;32840;52.516;13.294;2024-01-06T12:18:33;53.38;;;27.88;;
47089;SDS011;32840;52.516;13.294;2024-01-06T12:21:18;53.55;;;27.73;;
47089;SDS011;32840;52.516;13.294;2024-01-06T12:24:15;49.92;;;25.85;;
47089;SDS011;32840;52.516;13.294;2024-01-06T12:27:06;53.35;;;27.98;;
47089;SDS011;32840;52.516;13.294;2024-01-06T12:29:57;52.83;;;27.52;;
47089;SDS011;32840;52.516;13.294;2024-01-06T12:32:42;52.63;;;27.35;;
47089;SDS011;32840;52.516;13.294;2024-01-06T12:35:28;51.08;;;25.15;;
47089;SDS011;32840;52.516;13.294;2024-01-06T12:38:13;53.53;;;28.05;;
47089;SDS011;32840;52.516;13.294;2024-01-06T12:40:59;53.15;;;26.45;;
47089;SDS011;32840;52.516;13.294;2024-01-06T12:43:44;54.45;;;26.10;;
47089;SDS011;32840;52.516;13.294;2024-01-06T12:46:29;54.85;;;27.02;;
47089;SDS011;32840;52.516;13.294;2024-01-06T12:49:14;54.80;;;28.42;;
47089;SDS011;32840;52.516;13.294;2024-01-06T12:51:59;52.65;;;27.42;;
47089;SDS011;32840;52.516;13.294;2024-01-06T12:54:44;49.03;;;25.35;;
47089;SDS011;32840;52.516;13.294;2024-01-06T12:57:29;51.70;;;26.05;;
47089;SDS011;32840;52.516;13.294;2024-01-06T13:00:13;50.17;;;26.83;;
47089;SDS011;32840;52.516;13.294;2024-01-06T13:02:59;48.45;;;24.60;;
47089;SDS011;32840;52.516;13.294;2024-01-06T13:05:44;50.05;;;25.58;;
47089;SDS011;32840;52.516;13.294;2024-01-06T13:08:30;54.00;;;26.45;;
47089;SDS011;32840;52.516;13.294;2024-01-06T13:11:15;49.92;;;25.23;;
47089;SDS011;32840;52.516;13.294;2024-01-06T13:14:01;46.45;;;26.08;;
47089;SDS011;32840;52.516;13.294;2024-01-06T13:16:57;46.63;;;24.15;;
47089;SDS011;32840;52.516;13.294;2024-01-06T13:19:42;49.65;;;23.88;;
47089;SDS011;32840;52.516;13.294;2024-01-06T13:22:29;51.00;;;24.40;;
47089;SDS011;32840;52.516;13.294;2024-01-06T13:25:36;47.72;;;23.20;;
47089;SDS011;32840;52.516;13.294;2024-01-06T13:28:23;55.55;;;25.17;;
47089;SDS011;32840;52.516;13.294;2024-01-06T13:31:08;47.92;;;24.50;;
47089;SDS011;32840;52.516;13.294;2024-01-06T13:33:54;46.13;;;24.40;;
47089;SDS011;32840;52.516;13.294;2024-01-06T13:36:39;47.33;;;24.67;;
47089;SDS011;32840;52.516;13.294;2024-01-06T13:39:25;46.58;;;23.58;;
47089;SDS011;32840;52.516;13.294;2024-01-06T13:42:22;48.35;;;24.15;;
47089;SDS011;32840;52.516;13.294;2024-01-06T13:45:07;43.35;;;22.17;;
47089;SDS011;32840;52.516;13.294;2024-01-06T13:47:57;47.35;;;23.15;;
47089;SDS011;32840;52.516;13.294;2024-01-06T13:50:44;39.53;;;21.83;;
47089;SDS011;32840;52.516;13.294;2024-01-06T13:53:30;39.00;;;21.02;;
47089;SDS011;32840;52.516;13.294;2024-01-06T13:56:16;44.28;;;22.15;;
47089;SDS011;32840;52.516;13.294;2024-01-06T13:59:02;40.88;;;22.05;;
47089;SDS011;32840;52.516;13.294;2024-01-06T14:01:47;40.92;;;22.92;;
47089;SDS011;32840;52.516;13.294;2024-01-06T14:04:34;43.83;;;22.08;;
47089;SDS011;32840;52.516;13.294;2024-01-06T14:07:22;43.33;;;23.23;;
47089;SDS011;32840;52.516;13.294;2024-01-06T14:10:08;42.75;;;22.88;;
47089;SDS011;32840;52.516;13.294;2024-01-06T14:12:54;42.05;;;22.50;;
47089;SDS011;32840;52.516;13.294;2024-01-06T14:15:44;41.75;;;21.95;;
47089;SDS011;32840;52.516;13.294;2024-01-06T14:18:31;45.70;;;23.45;;
47089;SDS011;32840;52.516;13.294;2024-01-06T14:21:18;42.60;;;20.98;;
47089;SDS011;32840;52.516;13.294;2024-01-06T14:24:05;41.65;;;20.98;;
47089;SDS011;32840;52.516;13.294;2024-01-06T14:26:56;42.58;;;23.30;;
47089;SDS011;32840;52.516;13.294;2024-01-06T14:29:45;43.00;;;21.50;;
47089;SDS011;32840;52.516;13.294;2024-01-06T14:32:48;42.65;;;22.63;;
47089;SDS011;32840;52.516;13.294;2024-01-06T14:35:38;40.25;;;22.02;;
47089;SDS011;32840;52.516;13.294;2024-01-06T14:38:23;46.75;;;23.13;;
47089;SDS011;32840;52.516;13.294;2024-01-06T14:41:10;44.10;;;22.23;;
47089;SDS011;32840;52.516;13.294;2024-01-06T14:43:57;39.22;;;20.90;;
47089;SDS011;32840;52.516;13.294;2024-01-06T14:46:42;38.60;;;21.65;;
47089;SDS011;32840;52.516;13.294;2024-01-06T14:49:29;38.65;;;20.23;;
47089;SDS011;32840;52.516;13.294;2024-01-06T14:52:20;37.08;;;20.20;;
47089;SDS011;32840;52.516;13.294;2024-01-06T14:55:06;44.33;;;21.70;;
47089;SDS011;32840;52.516;13.294;2024-01-06T14:57:58;39.65;;;20.48;;
47089;SDS011;32840;52.516;13.294;2024-01-06T15:00:43;38.33;;;20.20;;
47089;SDS011;32840;52.516;13.294;2024-01-06T15:03:30;40.20;;;20.80;;
47089;SDS011;32840;52.516;13.294;2024-01-06T15:06:16;35.08;;;19.13;;
47089;SDS011;32840;52.516;13.294;2024-01-06T15:09:02;38.63;;;18.85;;
47089;SDS011;32840;52.516;13.294;2024-01-06T15:11:47;35.60;;;18.75;;
47089;SDS011;32840;52.516;13.294;2024-01-06T15:14:32;26.70;;;17.05;;
47089;SDS011;32840;52.516;13.294;2024-01-06T15:17:24;33.55;;;17.05;;
47089;SDS011;32840;52.516;13.294;2024-01-06T15:20:09;35.10;;;17.85;;
47089;SDS011;32840;52.516;13.294;2024-01-06T15:22:57;32.13;;;17.70;;
47089;SDS011;32840;52.516;13.294;2024-01-06T15:25:42;31.80;;;16.23;;
47089;SDS011;32840;52.516;13.294;2024-01-06T15:28:28;28.15;;;14.95;;
47089;SDS011;32840;52.516;13.294;2024-01-06T15:31:13;32.47;;;17.13;;
47089;SDS011;32840;52.516;13.294;2024-01-06T15:33:58;30.00;;;14.95;;
47089;SDS011;32840;52.516;13.294;2024-01-06T15:36:44;31.85;;;16.98;;
47089;SDS011;32840;52.516;13.294;2024-01-06T15:39:29;32.30;;;15.38;;
47089;SDS011;32840;52.516;13.294;2024-01-06T15:42:14;31.73;;;14.98;;
47089;SDS011;32840;52.516;13.294;2024-01-06T15:44:59;30.17;;;14.80;;
47089;SDS011;32840;52.516;13.294;2024-01-06T15:47:44;27.40;;;13.40;;
47089;SDS011;32840;52.516;13.294;2024-01-06T15:50:29;31.90;;;17.42;;
47089;SDS011;32840;52.516;13.294;2024-01-06T15:53:13;32.95;;;16.38;;
47089;SDS011;32840;52.516;13.294;2024-01-06T15:55:58;27.92;;;14.40;;
47089;SDS011;32840;52.516;13.294;2024-01-06T15:58:43;26.92;;;13.20;;
47089;SDS011;32840;52.516;13.294;2024-01-06T16:01:28;27.30;;;12.65;;
47089;SDS011;32840;52.516;13.294;2024-01-06T16:04:13;27.25;;;13.52;;
47089;SDS011;32840;52.516;13.294;2024-01-06T16:06:58;24.40;;;11.63;;
47089;SDS011;32840;52.516;13.294;2024-01-06T16:09:43;25.52;;;12.25;;
47089;SDS011;32840;52.516;13.294;2024-01-06T16:12:28;24.05;;;11.85;;
47089;SDS011;32840;52.516;13.294;2024-01-06T16:15:15;25.27;;;11.80;;
47089;SDS011;32840;52.516;13.294;2024-01-06T16:18:00;24.20;;;11.40;;
47089;SDS011;32840;52.516;13.294;2024-01-06T16:20:45;23.98;;;11.13;;